9A5 weather

Barwick Lafayette Airport
Lafayette, Georgia, United States

Public forecast

Using degrees Fahrenheit for public forecast. Weather courtesy of forecast.io.

Current aviation weather report (METAR) for Barwick Lafayette Airport

Retrieved 2020/02/17 15:35 UTC (0 seconds ago):

K9A5 171535Z AUTO 22004KT 10SM CLR 08/08 A3015 RMK AO2 T00800080

Closest aviation forecast (TAF) to Barwick Lafayette Airport

Closest forecast is Lovell Field, 21.2 nm (39.4 km) NNE. Retrieved 2020/02/17 12:42 UTC (3 hours ago):

TAF KCHA 171139Z 1712/1812 VRB03KT P6SM SCT250 FM172000 17005KT P6SM SCT040 BKN200 FM180100 17006KT P6SM BKN020 FM180800 17004KT P6SM VCSH OVC015